KMOD/MOD METAR and TAF weather

Enter ICAO airport designator
Station Type Date Time Source
KMOD METAR 2021/07/27 21:53 UTC NOAA

KMOD 272153Z 33012G21KT 290V360 10SM CLR 34/06 A2992 RMK AO2 SLP131 T03440061


Station Type Date Time Source
KMOD Decoded METAR 2021/07/27 21:53 UTC NOAA

MODESTO CITY CO SHAM FLD, CA, United States (KMOD) 37-37N 120-57W 29M
Jul 27, 2021 - 05:53 PM EDT / 2021.07.27 2153 UTC
Wind: from the NNW (330 degrees) at 14 MPH (12 KT) gusting to 24 MPH (21 KT) (direction variable):0
Visibility: 10 mile(s):0
Sky conditions: clear
Temperature: 93.9 F (34.4 C)
Dew Point: 43.0 F (6.1 C)
Relative Humidity: 17%
Pressure (altimeter): 29.92 in. Hg (1013 hPa)
ob: KMOD 272153Z 33012G21KT 290V360 10SM CLR 34/06 A2992 RMK AO2 SLP131 T03440061
cycle: 22

Station Type Date Time Source
KMOD TAF 2021/07/27 18:30 UTC NOAA

TAF KMOD 271725Z 2718/2818 32008KT P6SM SKC

Example: see airport list